sensor_id;sensor_type;location;lat;lon;timestamp;temperature;humidity
52481;DHT22;38393;52.404;13.532;2023-12-04T00:01:52;-5.80;99.90
52481;DHT22;38393;52.404;13.532;2023-12-04T00:04:18;-5.80;99.90
52481;DHT22;38393;52.404;13.532;2023-12-04T00:06:43;-5.80;99.90
52481;DHT22;38393;52.404;13.532;2023-12-04T00:09:09;-5.80;99.90
52481;DHT22;38393;52.404;13.532;2023-12-04T00:11:34;-5.80;99.90
52481;DHT22;38393;52.404;13.532;2023-12-04T00:14:00;-5.80;99.90
52481;DHT22;38393;52.404;13.532;2023-12-04T00:16:26;-5.90;99.90
52481;DHT22;38393;52.404;13.532;2023-12-04T00:18:51;-5.70;99.90
52481;DHT22;38393;52.404;13.532;2023-12-04T00:21:17;-5.90;99.90
52481;DHT22;38393;52.404;13.532;2023-12-04T00:23:42;-5.90;99.90
52481;DHT22;38393;52.404;13.532;2023-12-04T00:26:08;-5.90;99.90
52481;DHT22;38393;52.404;13.532;2023-12-04T00:28:36;-5.90;99.90
52481;DHT22;38393;52.404;13.532;2023-12-04T00:31:02;-5.90;99.90
52481;DHT22;38393;52.404;13.532;2023-12-04T00:33:28;-5.90;99.90
52481;DHT22;38393;52.404;13.532;2023-12-04T00:35:53;-6.00;99.90
52481;DHT22;38393;52.404;13.532;2023-12-04T00:38:18;-6.00;99.90
52481;DHT22;38393;52.404;13.532;2023-12-04T00:40:44;-5.80;99.90
52481;DHT22;38393;52.404;13.532;2023-12-04T00:43:09;-6.00;99.90
52481;DHT22;38393;52.404;13.532;2023-12-04T00:45:35;-5.90;99.90
52481;DHT22;38393;52.404;13.532;2023-12-04T00:48:01;-5.90;99.90
52481;DHT22;38393;52.404;13.532;2023-12-04T00:50:27;-5.80;99.90
52481;DHT22;38393;52.404;13.532;2023-12-04T00:52:52;-5.80;99.90
52481;DHT22;38393;52.404;13.532;2023-12-04T00:55:18;-5.90;99.90
52481;DHT22;38393;52.404;13.532;2023-12-04T00:57:44;-5.80;99.90
52481;DHT22;38393;52.404;13.532;2023-12-04T01:00:10;-5.80;99.90
52481;DHT22;38393;52.404;13.532;2023-12-04T01:02:36;-5.80;99.90
52481;DHT22;38393;52.404;13.532;2023-12-04T01:05:01;-5.70;99.90
52481;DHT22;38393;52.404;13.532;2023-12-04T01:07:27;-5.60;99.90
52481;DHT22;38393;52.404;13.532;2023-12-04T01:09:52;-5.60;99.90
52481;DHT22;38393;52.404;13.532;2023-12-04T01:12:18;-5.70;99.90
52481;DHT22;38393;52.404;13.532;2023-12-04T01:14:43;-5.70;99.90
52481;DHT22;38393;52.404;13.532;2023-12-04T01:17:09;-5.80;99.90
52481;DHT22;38393;52.404;13.532;2023-12-04T01:19:34;-5.70;99.90
52481;DHT22;38393;52.404;13.532;2023-12-04T01:22:00;-5.80;99.90
52481;DHT22;38393;52.404;13.532;2023-12-04T01:24:25;-5.80;99.90
52481;DHT22;38393;52.404;13.532;2023-12-04T01:26:51;-5.90;99.90
52481;DHT22;38393;52.404;13.532;2023-12-04T01:29:17;-5.80;99.90
52481;DHT22;38393;52.404;13.532;2023-12-04T01:31:42;-5.90;99.90
52481;DHT22;38393;52.404;13.532;2023-12-04T01:34:08;-6.00;99.90
52481;DHT22;38393;52.404;13.532;2023-12-04T01:36:33;-5.90;99.90
52481;DHT22;38393;52.404;13.532;2023-12-04T01:38:59;-5.90;99.90
52481;DHT22;38393;52.404;13.532;2023-12-04T01:41:24;-5.90;99.90
52481;DHT22;38393;52.404;13.532;2023-12-04T01:43:50;-5.80;99.90
52481;DHT22;38393;52.404;13.532;2023-12-04T01:46:17;-5.90;99.90
52481;DHT22;38393;52.404;13.532;2023-12-04T01:48:44;-5.90;99.90
52481;DHT22;38393;52.404;13.532;2023-12-04T01:51:11;-5.90;99.90
52481;DHT22;38393;52.404;13.532;2023-12-04T01:53:39;-6.00;99.90
52481;DHT22;38393;52.404;13.532;2023-12-04T01:56:05;-6.00;99.90
52481;DHT22;38393;52.404;13.532;2023-12-04T01:58:32;-5.90;99.90
52481;DHT22;38393;52.404;13.532;2023-12-04T02:00:58;-5.80;99.90
52481;DHT22;38393;52.404;13.532;2023-12-04T02:03:23;-5.80;99.90
52481;DHT22;38393;52.404;13.532;2023-12-04T02:05:51;-5.80;99.90
52481;DHT22;38393;52.404;13.532;2023-12-04T02:08:17;-5.70;99.90
52481;DHT22;38393;52.404;13.532;2023-12-04T02:10:43;-5.60;99.90
52481;DHT22;38393;52.404;13.532;2023-12-04T02:13:09;-5.60;99.90
52481;DHT22;38393;52.404;13.532;2023-12-04T02:15:35;-5.50;99.90
52481;DHT22;38393;52.404;13.532;2023-12-04T02:18:01;-5.60;99.90
52481;DHT22;38393;52.404;13.532;2023-12-04T02:20:34;-5.40;99.90
52481;DHT22;38393;52.404;13.532;2023-12-04T02:23:03;-5.40;99.90
52481;DHT22;38393;52.404;13.532;2023-12-04T02:25:29;-5.50;99.90
52481;DHT22;38393;52.404;13.532;2023-12-04T02:27:58;-5.40;99.90
52481;DHT22;38393;52.404;13.532;2023-12-04T02:30:24;-5.50;99.90
52481;DHT22;38393;52.404;13.532;2023-12-04T02:32:51;-5.50;99.90
52481;DHT22;38393;52.404;13.532;2023-12-04T02:35:23;-5.60;99.90
52481;DHT22;38393;52.404;13.532;2023-12-04T02:37:50;-5.40;99.90
52481;DHT22;38393;52.404;13.532;2023-12-04T02:40:16;-5.50;99.90
52481;DHT22;38393;52.404;13.532;2023-12-04T02:42:41;-5.50;99.90
52481;DHT22;38393;52.404;13.532;2023-12-04T02:45:07;-5.50;99.90
52481;DHT22;38393;52.404;13.532;2023-12-04T02:47:33;-5.50;99.90
52481;DHT22;38393;52.404;13.532;2023-12-04T02:49:58;-5.60;99.90
52481;DHT22;38393;52.404;13.532;2023-12-04T02:52:24;-5.50;99.90
52481;DHT22;38393;52.404;13.532;2023-12-04T02:54:49;-5.60;99.90
52481;DHT22;38393;52.404;13.532;2023-12-04T02:57:15;-5.50;99.90
52481;DHT22;38393;52.404;13.532;2023-12-04T02:59:40;-5.60;99.90
52481;DHT22;38393;52.404;13.532;2023-12-04T03:02:06;-5.50;99.90
52481;DHT22;38393;52.404;13.532;2023-12-04T03:04:31;-5.40;99.90
52481;DHT22;38393;52.404;13.532;2023-12-04T03:06:57;-5.50;99.90
52481;DHT22;38393;52.404;13.532;2023-12-04T03:09:23;-5.40;99.90
52481;DHT22;38393;52.404;13.532;2023-12-04T03:11:48;-5.40;99.90
52481;DHT22;38393;52.404;13.532;2023-12-04T03:14:14;-5.50;99.90
52481;DHT22;38393;52.404;13.532;2023-12-04T03:16:39;-5.40;99.90
52481;DHT22;38393;52.404;13.532;2023-12-04T03:19:05;-5.40;99.90
52481;DHT22;38393;52.404;13.532;2023-12-04T03:21:31;-5.40;99.90
52481;DHT22;38393;52.404;13.532;2023-12-04T03:23:56;-5.40;99.90
52481;DHT22;38393;52.404;13.532;2023-12-04T03:26:21;-5.30;99.90
52481;DHT22;38393;52.404;13.532;2023-12-04T03:28:47;-5.30;99.90
52481;DHT22;38393;52.404;13.532;2023-12-04T03:31:12;-5.30;99.90
52481;DHT22;38393;52.404;13.532;2023-12-04T03:33:38;-5.40;99.90
52481;DHT22;38393;52.404;13.532;2023-12-04T03:36:04;-5.30;99.90
52481;DHT22;38393;52.404;13.532;2023-12-04T03:38:30;-5.30;99.90
52481;DHT22;38393;52.404;13.532;2023-12-04T03:40:55;-5.40;99.90
52481;DHT22;38393;52.404;13.532;2023-12-04T03:43:21;-5.30;99.90
52481;DHT22;38393;52.404;13.532;2023-12-04T03:45:46;-5.30;99.90
52481;DHT22;38393;52.404;13.532;2023-12-04T03:48:12;-5.30;99.90
52481;DHT22;38393;52.404;13.532;2023-12-04T03:50:37;-5.30;99.90
52481;DHT22;38393;52.404;13.532;2023-12-04T03:53:03;-5.00;99.90
52481;DHT22;38393;52.404;13.532;2023-12-04T03:55:28;-5.00;99.90
52481;DHT22;38393;52.404;13.532;2023-12-04T03:57:55;-5.00;99.90
52481;DHT22;38393;52.404;13.532;2023-12-04T04:00:21;-4.90;99.90
52481;DHT22;38393;52.404;13.532;2023-12-04T04:02:48;-5.00;99.90
52481;DHT22;38393;52.404;13.532;2023-12-04T04:05:13;-4.90;99.90
52481;DHT22;38393;52.404;13.532;2023-12-04T04:07:39;-4.80;99.90
52481;DHT22;38393;52.404;13.532;2023-12-04T04:10:05;-4.70;99.90
52481;DHT22;38393;52.404;13.532;2023-12-04T04:12:32;-4.70;99.90
52481;DHT22;38393;52.404;13.532;2023-12-04T04:14:57;-4.60;99.90
52481;DHT22;38393;52.404;13.532;2023-12-04T04:17:23;-4.70;99.90
52481;DHT22;38393;52.404;13.532;2023-12-04T04:19:51;-4.70;99.90
52481;DHT22;38393;52.404;13.532;2023-12-04T04:22:17;-4.70;99.90
52481;DHT22;38393;52.404;13.532;2023-12-04T04:24:42;-4.70;99.90
52481;DHT22;38393;52.404;13.532;2023-12-04T04:27:08;-4.70;99.90
52481;DHT22;38393;52.404;13.532;2023-12-04T04:29:33;-4.50;99.90
52481;DHT22;38393;52.404;13.532;2023-12-04T04:31:59;-4.50;99.90
52481;DHT22;38393;52.404;13.532;2023-12-04T04:34:24;-4.50;99.90
52481;DHT22;38393;52.404;13.532;2023-12-04T04:36:50;-4.50;99.90
52481;DHT22;38393;52.404;13.532;2023-12-04T04:39:15;-4.50;99.90
52481;DHT22;38393;52.404;13.532;2023-12-04T04:41:41;-4.50;99.90
52481;DHT22;38393;52.404;13.532;2023-12-04T04:44:06;-4.50;99.90
52481;DHT22;38393;52.404;13.532;2023-12-04T04:46:32;-4.60;99.90
52481;DHT22;38393;52.404;13.532;2023-12-04T04:48:57;-4.50;99.90
52481;DHT22;38393;52.404;13.532;2023-12-04T04:51:23;-4.60;99.90
52481;DHT22;38393;52.404;13.532;2023-12-04T04:53:49;-4.50;99.90
52481;DHT22;38393;52.404;13.532;2023-12-04T04:56:15;-4.60;99.90
52481;DHT22;38393;52.404;13.532;2023-12-04T04:58:40;-4.60;99.90
52481;DHT22;38393;52.404;13.532;2023-12-04T05:01:06;-4.70;99.90
52481;DHT22;38393;52.404;13.532;2023-12-04T05:03:32;-4.60;99.90
52481;DHT22;38393;52.404;13.532;2023-12-04T05:05:57;-4.60;99.90
52481;DHT22;38393;52.404;13.532;2023-12-04T05:08:23;-4.50;99.90
52481;DHT22;38393;52.404;13.532;2023-12-04T05:10:48;-4.50;99.90
52481;DHT22;38393;52.404;13.532;2023-12-04T05:13:14;-4.50;99.90
52481;DHT22;38393;52.404;13.532;2023-12-04T05:15:39;-4.50;99.90
52481;DHT22;38393;52.404;13.532;2023-12-04T05:18:05;-4.40;99.90
52481;DHT22;38393;52.404;13.532;2023-12-04T05:20:30;-4.40;99.90
52481;DHT22;38393;52.404;13.532;2023-12-04T05:22:57;-4.40;99.90
52481;DHT22;38393;52.404;13.532;2023-12-04T05:25:22;-4.40;99.90
52481;DHT22;38393;52.404;13.532;2023-12-04T05:27:48;-4.30;99.90
52481;DHT22;38393;52.404;13.532;2023-12-04T05:30:14;-4.30;99.90
52481;DHT22;38393;52.404;13.532;2023-12-04T05:32:40;-4.10;99.90
52481;DHT22;38393;52.404;13.532;2023-12-04T05:35:05;-4.20;99.90
52481;DHT22;38393;52.404;13.532;2023-12-04T05:37:31;-4.20;99.90
52481;DHT22;38393;52.404;13.532;2023-12-04T05:39:57;-4.10;99.90
52481;DHT22;38393;52.404;13.532;2023-12-04T05:42:23;-4.10;99.90
52481;DHT22;38393;52.404;13.532;2023-12-04T05:44:48;-4.00;99.90
52481;DHT22;38393;52.404;13.532;2023-12-04T05:47:14;-3.90;99.90
52481;DHT22;38393;52.404;13.532;2023-12-04T05:49:40;-4.00;99.90
52481;DHT22;38393;52.404;13.532;2023-12-04T05:52:06;-4.30;99.90
52481;DHT22;38393;52.404;13.532;2023-12-04T05:54:32;-4.10;99.90
52481;DHT22;38393;52.404;13.532;2023-12-04T05:56:57;-4.20;99.90
52481;DHT22;38393;52.404;13.532;2023-12-04T05:59:23;-4.30;99.90
52481;DHT22;38393;52.404;13.532;2023-12-04T06:01:49;-4.40;99.90
52481;DHT22;38393;52.404;13.532;2023-12-04T06:04:14;-4.30;99.90
52481;DHT22;38393;52.404;13.532;2023-12-04T06:06:40;-4.30;99.90
52481;DHT22;38393;52.404;13.532;2023-12-04T06:09:05;-4.20;99.90
52481;DHT22;38393;52.404;13.532;2023-12-04T06:11:31;-4.20;99.90
52481;DHT22;38393;52.404;13.532;2023-12-04T06:13:57;-4.20;99.90
52481;DHT22;38393;52.404;13.532;2023-12-04T06:16:22;-4.20;99.90
52481;DHT22;38393;52.404;13.532;2023-12-04T06:18:48;-4.10;99.90
52481;DHT22;38393;52.404;13.532;2023-12-04T06:21:13;-4.10;99.90
52481;DHT22;38393;52.404;13.532;2023-12-04T06:23:39;-4.10;99.90
52481;DHT22;38393;52.404;13.532;2023-12-04T06:26:05;-4.00;99.90
52481;DHT22;38393;52.404;13.532;2023-12-04T06:28:31;-4.00;99.90
52481;DHT22;38393;52.404;13.532;2023-12-04T06:30:58;-4.00;99.90
52481;DHT22;38393;52.404;13.532;2023-12-04T06:33:23;-3.90;99.90
52481;DHT22;38393;52.404;13.532;2023-12-04T06:35:49;-3.90;99.90
52481;DHT22;38393;52.404;13.532;2023-12-04T06:38:15;-3.90;99.90
52481;DHT22;38393;52.404;13.532;2023-12-04T06:40:43;-3.90;99.90
52481;DHT22;38393;52.404;13.532;2023-12-04T06:43:09;-3.90;99.90
52481;DHT22;38393;52.404;13.532;2023-12-04T06:45:35;-3.90;99.90
52481;DHT22;38393;52.404;13.532;2023-12-04T06:48:01;-3.90;99.90
52481;DHT22;38393;52.404;13.532;2023-12-04T06:50:27;-3.80;99.90
52481;DHT22;38393;52.404;13.532;2023-12-04T06:52:52;-3.80;99.90
52481;DHT22;38393;52.404;13.532;2023-12-04T06:55:18;-3.80;99.90
52481;DHT22;38393;52.404;13.532;2023-12-04T06:57:43;-3.80;99.90
52481;DHT22;38393;52.404;13.532;2023-12-04T07:00:09;-3.80;99.90
52481;DHT22;38393;52.404;13.532;2023-12-04T07:02:39;-3.80;99.90
52481;DHT22;38393;52.404;13.532;2023-12-04T07:05:05;-3.70;99.90
52481;DHT22;38393;52.404;13.532;2023-12-04T07:07:31;-3.70;99.90
52481;DHT22;38393;52.404;13.532;2023-12-04T07:09:57;-3.70;99.90
52481;DHT22;38393;52.404;13.532;2023-12-04T07:12:22;-3.60;99.90
52481;DHT22;38393;52.404;13.532;2023-12-04T07:14:48;-3.60;99.90
52481;DHT22;38393;52.404;13.532;2023-12-04T07:17:13;-3.50;99.90
52481;DHT22;38393;52.404;13.532;2023-12-04T07:19:41;-3.50;99.90
52481;DHT22;38393;52.404;13.532;2023-12-04T07:22:06;-3.50;99.90
52481;DHT22;38393;52.404;13.532;2023-12-04T07:24:32;-3.40;99.90
52481;DHT22;38393;52.404;13.532;2023-12-04T07:26:58;-3.30;99.90
52481;DHT22;38393;52.404;13.532;2023-12-04T07:29:23;-3.30;99.90
52481;DHT22;38393;52.404;13.532;2023-12-04T07:31:49;-3.40;99.90
52481;DHT22;38393;52.404;13.532;2023-12-04T07:34:14;-3.30;99.90
52481;DHT22;38393;52.404;13.532;2023-12-04T07:36:40;-3.30;99.90
52481;DHT22;38393;52.404;13.532;2023-12-04T07:39:05;-3.00;99.90
52481;DHT22;38393;52.404;13.532;2023-12-04T07:41:32;-3.00;99.90
52481;DHT22;38393;52.404;13.532;2023-12-04T07:43:57;-2.90;99.90
52481;DHT22;38393;52.404;13.532;2023-12-04T07:46:23;-3.10;99.90
52481;DHT22;38393;52.404;13.532;2023-12-04T07:48:48;-3.00;99.90
52481;DHT22;38393;52.404;13.532;2023-12-04T07:51:14;-2.90;99.90
52481;DHT22;38393;52.404;13.532;2023-12-04T07:53:39;-2.90;99.90
52481;DHT22;38393;52.404;13.532;2023-12-04T07:56:05;-2.70;99.90
52481;DHT22;38393;52.404;13.532;2023-12-04T07:58:31;-2.70;99.90
52481;DHT22;38393;52.404;13.532;2023-12-04T08:00:57;-2.70;99.90
52481;DHT22;38393;52.404;13.532;2023-12-04T08:03:23;-2.70;99.90
52481;DHT22;38393;52.404;13.532;2023-12-04T08:05:50;-2.60;99.90
52481;DHT22;38393;52.404;13.532;2023-12-04T08:08:15;-2.50;99.90
52481;DHT22;38393;52.404;13.532;2023-12-04T08:10:41;-2.40;99.90
52481;DHT22;38393;52.404;13.532;2023-12-04T08:13:07;-2.40;99.90
52481;DHT22;38393;52.404;13.532;2023-12-04T08:15:32;-2.40;99.90
52481;DHT22;38393;52.404;13.532;2023-12-04T08:17:58;-2.40;99.90
52481;DHT22;38393;52.404;13.532;2023-12-04T08:20:23;-2.30;99.90
52481;DHT22;38393;52.404;13.532;2023-12-04T08:22:49;-2.20;99.90
52481;DHT22;38393;52.404;13.532;2023-12-04T08:25:14;-2.20;99.90
52481;DHT22;38393;52.404;13.532;2023-12-04T08:27:40;-2.20;99.90
52481;DHT22;38393;52.404;13.532;2023-12-04T08:30:06;-2.10;99.90
52481;DHT22;38393;52.404;13.532;2023-12-04T08:32:31;-2.10;99.90
52481;DHT22;38393;52.404;13.532;2023-12-04T08:34:57;-2.00;99.90
52481;DHT22;38393;52.404;13.532;2023-12-04T08:37:22;-2.00;99.90
52481;DHT22;38393;52.404;13.532;2023-12-04T08:39:48;-1.90;99.90
52481;DHT22;38393;52.404;13.532;2023-12-04T08:42:13;-1.80;99.90
52481;DHT22;38393;52.404;13.532;2023-12-04T08:44:39;-1.80;99.90
52481;DHT22;38393;52.404;13.532;2023-12-04T08:47:05;-1.80;99.90
52481;DHT22;38393;52.404;13.532;2023-12-04T08:49:31;-1.80;99.90
52481;DHT22;38393;52.404;13.532;2023-12-04T08:51:57;-1.70;99.90
52481;DHT22;38393;52.404;13.532;2023-12-04T08:54:24;-1.70;99.90
52481;DHT22;38393;52.404;13.532;2023-12-04T08:56:49;-1.60;99.90
52481;DHT22;38393;52.404;13.532;2023-12-04T08:59:15;-1.60;99.90
52481;DHT22;38393;52.404;13.532;2023-12-04T09:01:42;-1.50;99.90
52481;DHT22;38393;52.404;13.532;2023-12-04T09:04:08;-1.60;99.90
52481;DHT22;38393;52.404;13.532;2023-12-04T09:06:34;-1.40;99.90
52481;DHT22;38393;52.404;13.532;2023-12-04T09:09:00;-1.30;99.90
52481;DHT22;38393;52.404;13.532;2023-12-04T09:11:25;-1.30;99.90
52481;DHT22;38393;52.404;13.532;2023-12-04T09:13:51;-1.40;99.90
52481;DHT22;38393;52.404;13.532;2023-12-04T09:16:16;-1.40;99.90
52481;DHT22;38393;52.404;13.532;2023-12-04T09:18:42;-1.30;99.90
52481;DHT22;38393;52.404;13.532;2023-12-04T09:21:07;-1.30;99.90
52481;DHT22;38393;52.404;13.532;2023-12-04T09:23:34;-1.20;99.90
52481;DHT22;38393;52.404;13.532;2023-12-04T09:26:00;-1.20;99.90
52481;DHT22;38393;52.404;13.532;2023-12-04T09:28:25;-1.20;99.90
52481;DHT22;38393;52.404;13.532;2023-12-04T09:30:51;-1.20;99.90
52481;DHT22;38393;52.404;13.532;2023-12-04T09:33:16;-1.10;99.90
52481;DHT22;38393;52.404;13.532;2023-12-04T09:35:42;-1.00;99.90
52481;DHT22;38393;52.404;13.532;2023-12-04T09:38:07;-1.00;99.90
52481;DHT22;38393;52.404;13.532;2023-12-04T09:40:33;-0.80;99.90
52481;DHT22;38393;52.404;13.532;2023-12-04T09:42:58;-1.00;99.90
52481;DHT22;38393;52.404;13.532;2023-12-04T09:45:24;-0.90;99.90
52481;DHT22;38393;52.404;13.532;2023-12-04T09:47:50;-0.80;99.90
52481;DHT22;38393;52.404;13.532;2023-12-04T09:50:16;-0.80;99.90
52481;DHT22;38393;52.404;13.532;2023-12-04T09:52:51;-0.80;99.90
52481;DHT22;38393;52.404;13.532;2023-12-04T09:55:17;-0.80;99.90
52481;DHT22;38393;52.404;13.532;2023-12-04T09:57:44;-0.60;99.90
52481;DHT22;38393;52.404;13.532;2023-12-04T10:00:12;-0.50;99.90
52481;DHT22;38393;52.404;13.532;2023-12-04T10:02:38;-0.40;99.90
52481;DHT22;38393;52.404;13.532;2023-12-04T10:05:04;-0.50;99.90
52481;DHT22;38393;52.404;13.532;2023-12-04T10:07:31;-0.30;99.90
52481;DHT22;38393;52.404;13.532;2023-12-04T10:09:56;-0.20;99.90
52481;DHT22;38393;52.404;13.532;2023-12-04T10:12:22;-0.20;99.90
52481;DHT22;38393;52.404;13.532;2023-12-04T10:15:08;-0.20;99.90
52481;DHT22;38393;52.404;13.532;2023-12-04T10:17:39;-0.20;99.90
52481;DHT22;38393;52.404;13.532;2023-12-04T10:20:15;-0.10;99.90
52481;DHT22;38393;52.404;13.532;2023-12-04T10:25:19;0.00;99.90
52481;DHT22;38393;52.404;13.532;2023-12-04T10:27:46;-0.10;99.90
52481;DHT22;38393;52.404;13.532;2023-12-04T10:30:28;0.10;99.90
52481;DHT22;38393;52.404;13.532;2023-12-04T10:32:57;0.00;99.90
52481;DHT22;38393;52.404;13.532;2023-12-04T10:35:27;-0.10;99.90
52481;DHT22;38393;52.404;13.532;2023-12-04T10:37:54;0.10;99.90
52481;DHT22;38393;52.404;13.532;2023-12-04T10:40:27;0.00;99.90
52481;DHT22;38393;52.404;13.532;2023-12-04T10:43:19;0.20;99.90
52481;DHT22;38393;52.404;13.532;2023-12-04T10:45:50;0.10;99.90
52481;DHT22;38393;52.404;13.532;2023-12-04T10:48:17;0.00;99.90
52481;DHT22;38393;52.404;13.532;2023-12-04T10:50:47;0.00;99.90
52481;DHT22;38393;52.404;13.532;2023-12-04T10:53:14;0.10;99.90
52481;DHT22;38393;52.404;13.532;2023-12-04T10:55:40;0.00;99.90
52481;DHT22;38393;52.404;13.532;2023-12-04T10:58:11;0.00;99.90
52481;DHT22;38393;52.404;13.532;2023-12-04T11:00:40;0.10;99.90
52481;DHT22;38393;52.404;13.532;2023-12-04T11:03:13;0.10;99.90
52481;DHT22;38393;52.404;13.532;2023-12-04T11:05:40;0.10;99.90
52481;DHT22;38393;52.404;13.532;2023-12-04T11:08:11;-0.10;99.90
52481;DHT22;38393;52.404;13.532;2023-12-04T11:10:54;0.00;99.90
52481;DHT22;38393;52.404;13.532;2023-12-04T11:13:23;0.10;99.90
52481;DHT22;38393;52.404;13.532;2023-12-04T11:15:52;-0.10;99.90
52481;DHT22;38393;52.404;13.532;2023-12-04T11:18:23;0.10;99.90
52481;DHT22;38393;52.404;13.532;2023-12-04T11:20:56;0.10;99.90
52481;DHT22;38393;52.404;13.532;2023-12-04T11:23:24;0.30;99.90
52481;DHT22;38393;52.404;13.532;2023-12-04T11:25:51;0.10;99.90
52481;DHT22;38393;52.404;13.532;2023-12-04T11:28:18;0.40;99.90
52481;DHT22;38393;52.404;13.532;2023-12-04T11:30:45;0.40;99.90
52481;DHT22;38393;52.404;13.532;2023-12-04T11:33:11;0.50;99.90
52481;DHT22;38393;52.404;13.532;2023-12-04T11:35:38;0.60;99.90
52481;DHT22;38393;52.404;13.532;2023-12-04T11:38:07;0.70;99.90
52481;DHT22;38393;52.404;13.532;2023-12-04T11:40:34;0.60;99.90
52481;DHT22;38393;52.404;13.532;2023-12-04T11:43:20;0.50;99.90
52481;DHT22;38393;52.404;13.532;2023-12-04T11:45:47;0.60;99.90
52481;DHT22;38393;52.404;13.532;2023-12-04T11:48:14;0.70;99.90
52481;DHT22;38393;52.404;13.532;2023-12-04T11:50:40;0.70;99.90
52481;DHT22;38393;52.404;13.532;2023-12-04T11:53:06;0.60;99.90
52481;DHT22;38393;52.404;13.532;2023-12-04T11:55:35;0.70;99.90
52481;DHT22;38393;52.404;13.532;2023-12-04T11:58:09;0.80;99.90
52481;DHT22;38393;52.404;13.532;2023-12-04T12:00:36;0.70;99.90
52481;DHT22;38393;52.404;13.532;2023-12-04T12:03:06;0.70;99.90
52481;DHT22;38393;52.404;13.532;2023-12-04T12:05:36;0.80;99.90
52481;DHT22;38393;52.404;13.532;2023-12-04T12:08:04;0.50;99.90
52481;DHT22;38393;52.404;13.532;2023-12-04T12:10:30;0.50;99.90
52481;DHT22;38393;52.404;13.532;2023-12-04T12:12:56;0.40;99.90
52481;DHT22;38393;52.404;13.532;2023-12-04T12:15:22;0.30;99.90
52481;DHT22;38393;52.404;13.532;2023-12-04T12:17:49;0.30;99.90
52481;DHT22;38393;52.404;13.532;2023-12-04T12:20:15;0.40;99.90
52481;DHT22;38393;52.404;13.532;2023-12-04T12:22:41;0.40;99.90
52481;DHT22;38393;52.404;13.532;2023-12-04T12:25:10;0.30;99.90
52481;DHT22;38393;52.404;13.532;2023-12-04T12:27:36;0.30;99.90
52481;DHT22;38393;52.404;13.532;2023-12-04T12:30:02;0.30;99.90
52481;DHT22;38393;52.404;13.532;2023-12-04T12:32:32;0.30;99.90
52481;DHT22;38393;52.404;13.532;2023-12-04T12:34:58;0.30;99.90
52481;DHT22;38393;52.404;13.532;2023-12-04T12:37:24;0.30;99.90
52481;DHT22;38393;52.404;13.532;2023-12-04T12:39:49;0.30;99.90
52481;DHT22;38393;52.404;13.532;2023-12-04T12:42:25;0.30;99.90
52481;DHT22;38393;52.404;13.532;2023-12-04T12:44:51;0.30;99.90
52481;DHT22;38393;52.404;13.532;2023-12-04T12:47:17;0.50;99.90
52481;DHT22;38393;52.404;13.532;2023-12-04T12:49:44;0.50;99.90
52481;DHT22;38393;52.404;13.532;2023-12-04T12:52:10;0.40;99.90
52481;DHT22;38393;52.404;13.532;2023-12-04T12:54:40;0.40;99.90
52481;DHT22;38393;52.404;13.532;2023-12-04T12:57:06;0.40;99.90
52481;DHT22;38393;52.404;13.532;2023-12-04T12:59:32;0.50;99.90
52481;DHT22;38393;52.404;13.532;2023-12-04T13:01:58;0.50;99.90
52481;DHT22;38393;52.404;13.532;2023-12-04T13:04:26;0.40;99.90
52481;DHT22;38393;52.404;13.532;2023-12-04T13:06:51;0.40;99.90
52481;DHT22;38393;52.404;13.532;2023-12-04T13:09:17;0.50;99.90
52481;DHT22;38393;52.404;13.532;2023-12-04T13:11:45;0.50;99.90
52481;DHT22;38393;52.404;13.532;2023-12-04T13:14:10;0.50;99.90
52481;DHT22;38393;52.404;13.532;2023-12-04T13:16:36;0.50;99.90
52481;DHT22;38393;52.404;13.532;2023-12-04T13:19:01;0.40;99.90
52481;DHT22;38393;52.404;13.532;2023-12-04T13:21:27;0.30;99.90
52481;DHT22;38393;52.404;13.532;2023-12-04T13:23:52;0.40;99.90
52481;DHT22;38393;52.404;13.532;2023-12-04T13:26:18;0.40;99.90
52481;DHT22;38393;52.404;13.532;2023-12-04T13:28:45;0.30;99.90
52481;DHT22;38393;52.404;13.532;2023-12-04T13:31:11;0.30;99.90
52481;DHT22;38393;52.404;13.532;2023-12-04T13:33:36;0.20;99.90
52481;DHT22;38393;52.404;13.532;2023-12-04T13:36:02;0.30;99.90
52481;DHT22;38393;52.404;13.532;2023-12-04T13:38:29;0.20;99.90
52481;DHT22;38393;52.404;13.532;2023-12-04T13:40:55;0.30;99.90
52481;DHT22;38393;52.404;13.532;2023-12-04T13:43:44;0.20;99.90
52481;DHT22;38393;52.404;13.532;2023-12-04T13:46:15;0.20;99.90
52481;DHT22;38393;52.404;13.532;2023-12-04T13:48:40;0.10;99.90
52481;DHT22;38393;52.404;13.532;2023-12-04T13:51:09;0.20;99.90
52481;DHT22;38393;52.404;13.532;2023-12-04T13:53:35;0.10;99.90
52481;DHT22;38393;52.404;13.532;2023-12-04T13:56:05;0.10;99.90
52481;DHT22;38393;52.404;13.532;2023-12-04T13:58:49;0.10;99.90
52481;DHT22;38393;52.404;13.532;2023-12-04T14:01:23;0.00;99.90
52481;DHT22;38393;52.404;13.532;2023-12-04T14:03:51;0.00;99.90
52481;DHT22;38393;52.404;13.532;2023-12-04T14:06:17;-0.10;99.90
52481;DHT22;38393;52.404;13.532;2023-12-04T14:08:43;0.00;99.90
52481;DHT22;38393;52.404;13.532;2023-12-04T14:11:09;0.00;99.90
52481;DHT22;38393;52.404;13.532;2023-12-04T14:13:36;-0.10;99.90
52481;DHT22;38393;52.404;13.532;2023-12-04T14:16:02;-0.10;99.90
52481;DHT22;38393;52.404;13.532;2023-12-04T14:18:28;-0.20;99.90
52481;DHT22;38393;52.404;13.532;2023-12-04T14:20:55;0.00;99.90
52481;DHT22;38393;52.404;13.532;2023-12-04T14:23:21;-0.20;99.90
52481;DHT22;38393;52.404;13.532;2023-12-04T14:25:47;-0.20;99.90
52481;DHT22;38393;52.404;13.532;2023-12-04T14:28:12;-0.30;99.90
52481;DHT22;38393;52.404;13.532;2023-12-04T14:30:37;-0.30;99.90
52481;DHT22;38393;52.404;13.532;2023-12-04T14:33:03;-0.30;99.90
52481;DHT22;38393;52.404;13.532;2023-12-04T14:35:28;-0.30;99.90
52481;DHT22;38393;52.404;13.532;2023-12-04T14:37:55;-0.30;99.90
52481;DHT22;38393;52.404;13.532;2023-12-04T14:40:20;-0.20;99.90
52481;DHT22;38393;52.404;13.532;2023-12-04T14:42:46;-0.40;99.90
52481;DHT22;38393;52.404;13.532;2023-12-04T14:45:12;-0.30;99.90
52481;DHT22;38393;52.404;13.532;2023-12-04T14:47:39;-0.40;99.90
52481;DHT22;38393;52.404;13.532;2023-12-04T14:50:05;-0.40;99.90
52481;DHT22;38393;52.404;13.532;2023-12-04T14:52:32;-0.50;99.90
52481;DHT22;38393;52.404;13.532;2023-12-04T14:54:59;-0.40;99.90
52481;DHT22;38393;52.404;13.532;2023-12-04T14:57:34;-0.50;99.90
52481;DHT22;38393;52.404;13.532;2023-12-04T15:00:09;-0.40;99.90
52481;DHT22;38393;52.404;13.532;2023-12-04T15:02:54;-0.40;99.90
52481;DHT22;38393;52.404;13.532;2023-12-04T15:05:45;-0.40;99.90
52481;DHT22;38393;52.404;13.532;2023-12-04T15:08:29;-0.40;99.90
52481;DHT22;38393;52.404;13.532;2023-12-04T15:11:13;-0.40;99.90
52481;DHT22;38393;52.404;13.532;2023-12-04T15:14:01;-0.40;99.90
52481;DHT22;38393;52.404;13.532;2023-12-04T15:16:42;-0.50;99.90
52481;DHT22;38393;52.404;13.532;2023-12-04T15:19:14;-0.40;99.90
52481;DHT22;38393;52.404;13.532;2023-12-04T15:21:40;-0.50;99.90